createdAt,value
2019-04-28T00:00:01.391Z,68.37
2019-04-28T00:00:53.119Z,68.33
2019-04-28T00:01:45.291Z,68.25
2019-04-28T00:02:35.760Z,68.15
2019-04-28T00:03:26.302Z,68.12
2019-04-28T00:04:16.465Z,68.04
2019-04-28T00:05:06.727Z,67.98
2019-04-28T00:05:56.858Z,67.88
2019-04-28T00:06:47.040Z,67.77
2019-04-28T00:07:37.678Z,67.71
2019-04-28T00:08:27.942Z,67.67
2019-04-28T00:09:18.853Z,67.65
2019-04-28T00:10:10.990Z,67.33
2019-04-28T00:10:59.225Z,66.81
2019-04-28T00:11:51.611Z,66.54
2019-04-28T00:12:41.289Z,66.46
2019-04-28T00:13:32.119Z,66.43
2019-04-28T00:14:21.931Z,66.24
2019-04-28T00:15:12.354Z,66.21
2019-04-28T00:16:02.899Z,66.17
2019-04-28T00:16:53.440Z,66.08
2019-04-28T00:17:43.706Z,65.96
2019-04-28T00:18:34.324Z,65.84
2019-04-28T00:19:23.968Z,65.60
2019-04-28T00:20:17.324Z,65.61
2019-04-28T00:21:36.214Z,65.50
2019-04-28T00:22:31.872Z,64.87
2019-04-28T00:23:38.527Z,64.47
2019-04-28T00:25:03.460Z,64.37
2019-04-28T00:26:03.418Z,63.89
2019-04-28T00:26:55.999Z,63.85
2019-04-28T00:27:46.852Z,63.80
2019-04-28T00:28:37.187Z,63.88
2019-04-28T00:29:37.613Z,63.88
2019-04-28T00:30:17.677Z,63.85
2019-04-28T00:31:08.397Z,63.73
2019-04-28T00:32:01.082Z,63.77
2019-04-28T00:32:51.863Z,63.77
2019-04-28T00:33:41.016Z,63.46
2019-04-28T00:34:31.190Z,63.46
2019-04-28T00:35:23.193Z,63.46
2019-04-28T00:36:11.637Z,63.47
2019-04-28T00:37:27.104Z,63.36
2019-04-28T00:38:18.390Z,63.26
2019-04-28T00:39:08.210Z,62.89
2019-04-28T00:39:58.422Z,62.71
2019-04-28T00:40:48.666Z,62.69
2019-04-28T00:41:39.773Z,62.71
2019-04-28T00:42:31.496Z,62.69
2019-04-28T00:43:21.807Z,62.68
2019-04-28T00:44:12.187Z,62.35
2019-04-28T00:45:02.215Z,62.02
2019-04-28T00:45:52.186Z,61.66
2019-04-28T00:46:42.621Z,61.52
2019-04-28T00:47:33.427Z,61.51
2019-04-28T00:48:23.828Z,61.35
2019-04-28T00:49:13.462Z,61.10
2019-04-28T00:50:04.560Z,60.74
2019-04-28T00:50:54.863Z,60.81
2019-04-28T00:51:45.644Z,60.66
2019-04-28T00:52:35.532Z,60.41
2019-04-28T00:53:26.392Z,60.28
2019-04-28T00:54:16.087Z,60.32
2019-04-28T00:55:06.114Z,60.41
2019-04-28T00:55:56.523Z,60.46
2019-04-28T00:56:46.802Z,60.38
2019-04-28T00:57:36.979Z,60.40
2019-04-28T00:58:27.258Z,60.34
2019-04-28T00:59:17.439Z,60.31
2019-04-28T01:00:08.709Z,60.37
2019-04-28T01:01:01.414Z,60.29
2019-04-28T01:01:56.350Z,60.24
2019-04-28T01:02:46.710Z,60.33
2019-04-28T01:03:37.401Z,60.38
2019-04-28T01:04:27.192Z,60.46
2019-04-28T01:05:17.296Z,60.50
2019-04-28T01:06:07.467Z,60.46
2019-04-28T01:06:57.379Z,60.25
2019-04-28T01:07:48.112Z,59.93
2019-04-28T01:08:38.509Z,59.36
2019-04-28T01:09:28.401Z,58.64
2019-04-28T01:10:21.001Z,58.95
2019-04-28T01:11:11.362Z,58.87
2019-04-28T01:12:01.824Z,58.58
2019-04-28T01:12:51.002Z,58.43
2019-04-28T01:13:41.911Z,58.16
2019-04-28T01:14:31.364Z,58.03
2019-04-28T01:15:36.553Z,58.13
2019-04-28T01:16:32.022Z,58.09
2019-04-28T01:17:25.563Z,58.21
2019-04-28T01:18:44.343Z,58.10
2019-04-28T01:19:36.228Z,58.33
2019-04-28T01:20:26.052Z,58.42
2019-04-28T01:21:16.414Z,58.40
2019-04-28T01:22:14.477Z,58.51
2019-04-28T01:23:04.624Z,58.50
2019-04-28T01:23:54.717Z,58.60
2019-04-28T01:24:44.360Z,58.77
2019-04-28T01:25:34.271Z,58.82
2019-04-28T01:26:25.062Z,59.08
2019-04-28T01:27:37.688Z,59.09
2019-04-28T01:28:29.662Z,59.08
2019-04-28T01:29:19.516Z,59.20
2019-04-28T01:30:12.562Z,59.40
2019-04-28T01:31:21.761Z,59.40
2019-04-28T01:32:23.418Z,59.63
2019-04-28T01:33:47.907Z,59.79
2019-04-28T01:34:37.624Z,59.80
2019-04-28T01:35:29.181Z,59.90
2019-04-28T01:36:20.198Z,60.05
2019-04-28T01:37:09.737Z,60.06
2019-04-28T01:38:00.126Z,60.15
2019-04-28T01:38:50.167Z,60.28
2019-04-28T01:39:41.276Z,60.53
2019-04-28T01:40:31.480Z,60.57
2019-04-28T01:41:21.795Z,60.64
2019-04-28T01:42:12.799Z,60.70
2019-04-28T01:43:03.320Z,60.70
2019-04-28T01:43:53.219Z,60.67
2019-04-28T01:44:43.708Z,60.68
2019-04-28T01:45:33.786Z,60.85
2019-04-28T01:46:24.784Z,60.94
2019-04-28T01:47:14.901Z,60.94
2019-04-28T01:48:05.053Z,61.24
2019-04-28T01:48:56.230Z,61.16
2019-04-28T01:49:46.716Z,61.19
2019-04-28T01:50:40.006Z,61.21
2019-04-28T01:51:30.446Z,61.33
2019-04-28T01:52:20.294Z,61.57
2019-04-28T01:53:09.818Z,61.53
2019-04-28T01:54:00.215Z,61.57
2019-04-28T01:54:50.296Z,61.71
2019-04-28T01:55:41.174Z,61.58
2019-04-28T01:56:30.473Z,61.61
2019-04-28T01:57:21.492Z,61.59
2019-04-28T01:58:10.325Z,61.74
2019-04-28T01:59:00.485Z,61.72
2019-04-28T01:59:50.687Z,61.67
2019-04-28T02:00:40.651Z,61.76
2019-04-28T02:01:30.390Z,61.89
2019-04-28T02:02:20.570Z,61.84
2019-04-28T02:03:10.762Z,61.81
2019-04-28T02:04:01.246Z,61.85
2019-04-28T02:04:52.043Z,62.00
2019-04-28T02:05:42.592Z,61.98
2019-04-28T02:06:33.222Z,61.84
2019-04-28T02:07:24.637Z,61.85
2019-04-28T02:08:17.926Z,61.84
2019-04-28T02:09:10.245Z,61.84
2019-04-28T02:10:00.911Z,61.88
2019-04-28T02:10:51.985Z,62.02
2019-04-28T02:11:42.758Z,61.93
2019-04-28T02:12:32.745Z,61.90
2019-04-28T02:13:24.784Z,62.02
2019-04-28T02:14:14.563Z,61.84
2019-04-28T02:15:05.057Z,61.76
2019-04-28T02:15:55.199Z,61.80
2019-04-28T02:16:44.839Z,61.82
2019-04-28T02:17:34.793Z,61.84
2019-04-28T02:18:25.594Z,61.84
2019-04-28T02:19:16.378Z,61.87
2019-04-28T02:20:07.203Z,61.89
2019-04-28T02:21:03.428Z,61.83
2019-04-28T02:22:00.066Z,62.01
2019-04-28T02:22:54.105Z,61.88
2019-04-28T02:23:44.785Z,61.85
2019-04-28T02:24:54.592Z,61.87
2019-04-28T02:25:46.444Z,61.87
2019-04-28T02:26:37.059Z,61.76
2019-04-28T02:27:27.948Z,61.72
2019-04-28T02:28:19.792Z,61.70
2019-04-28T02:29:10.209Z,61.65
2019-04-28T02:30:00.120Z,61.50
2019-04-28T02:30:53.537Z,61.46
2019-04-28T02:31:41.946Z,61.48
2019-04-28T02:32:31.083Z,61.54
2019-04-28T02:33:21.319Z,61.53
2019-04-28T02:34:11.925Z,61.62
2019-04-28T02:35:03.025Z,61.71
2019-04-28T02:35:53.445Z,61.69
2019-04-28T02:36:45.474Z,61.67
2019-04-28T02:37:36.410Z,61.63
2019-04-28T02:38:26.535Z,61.53
2019-04-28T02:39:16.581Z,61.44
2019-04-28T02:40:10.362Z,61.32
2019-04-28T02:41:00.186Z,61.21
2019-04-28T02:41:51.203Z,61.14
2019-04-28T02:42:40.945Z,61.17
2019-04-28T02:43:30.994Z,61.21
2019-04-28T02:44:23.513Z,61.14
2019-04-28T02:45:12.027Z,61.13
2019-04-28T02:46:02.388Z,61.08
2019-04-28T02:46:53.837Z,61.13
2019-04-28T02:47:44.101Z,61.15
2019-04-28T02:48:34.055Z,61.16
2019-04-28T02:49:30.644Z,61.18
2019-04-28T02:50:40.956Z,61.21
2019-04-28T02:51:32.651Z,60.98
2019-04-28T02:52:42.369Z,60.90
2019-04-28T02:53:36.556Z,60.83
2019-04-28T02:54:26.894Z,60.86
2019-04-28T02:55:16.738Z,60.99
2019-04-28T02:56:07.665Z,61.04
2019-04-28T02:56:57.470Z,61.00
2019-04-28T02:57:47.755Z,60.93
2019-04-28T02:58:41.297Z,60.89
2019-04-28T02:59:30.451Z,60.85
2019-04-28T03:00:21.328Z,60.65
2019-04-28T03:01:18.533Z,60.54
2019-04-28T03:02:00.798Z,60.51
2019-04-28T03:02:51.511Z,60.49
2019-04-28T03:03:41.473Z,60.47
2019-04-28T03:04:32.172Z,60.47
2019-04-28T03:05:22.315Z,60.49
2019-04-28T03:06:13.014Z,60.44
2019-04-28T03:07:03.590Z,60.39
2019-04-28T03:07:54.508Z,60.33
2019-04-28T03:08:44.983Z,60.39
2019-04-28T03:09:35.373Z,60.38
2019-04-28T03:10:26.031Z,60.37
2019-04-28T03:11:16.873Z,60.36
2019-04-28T03:12:07.614Z,60.54
2019-04-28T03:12:57.631Z,60.46
2019-04-28T03:13:50.853Z,60.41
2019-04-28T03:14:43.436Z,60.40
2019-04-28T03:15:30.315Z,60.27
2019-04-28T03:16:20.537Z,60.29
2019-04-28T03:17:10.991Z,60.27
2019-04-28T03:18:01.914Z,60.29
2019-04-28T03:18:51.401Z,60.00
2019-04-28T03:19:41.802Z,59.98
2019-04-28T03:20:32.095Z,59.88
2019-04-28T03:21:22.483Z,59.92
2019-04-28T03:22:13.098Z,59.86
2019-04-28T03:23:03.715Z,59.88
2019-04-28T03:23:54.591Z,59.85
2019-04-28T03:24:46.361Z,59.87
2019-04-28T03:25:54.490Z,60.06
2019-04-28T03:26:53.853Z,60.04
2019-04-28T03:28:02.617Z,59.77
2019-04-28T03:29:24.729Z,59.74
2019-04-28T03:30:34.075Z,59.75
2019-04-28T03:32:18.236Z,59.74
2019-04-28T03:32:55.441Z,59.73
2019-04-28T03:33:48.530Z,59.76
2019-04-28T03:34:47.012Z,59.79
2019-04-28T03:35:36.923Z,59.87
2019-04-28T03:36:27.532Z,59.91
2019-04-28T03:37:17.939Z,60.03
2019-04-28T03:38:07.959Z,60.03
2019-04-28T03:39:00.725Z,60.02
2019-04-28T03:39:50.382Z,60.11
2019-04-28T03:40:41.402Z,60.34
2019-04-28T03:41:31.060Z,60.26
2019-04-28T03:42:21.548Z,60.18
2019-04-28T03:43:14.187Z,60.19
2019-04-28T03:44:02.139Z,60.21
2019-04-28T03:44:52.089Z,60.29
2019-04-28T03:45:50.253Z,60.41
2019-04-28T03:46:45.806Z,60.36
2019-04-28T03:47:36.753Z,60.35
2019-04-28T03:48:26.937Z,60.39
2019-04-28T03:49:33.852Z,60.46
2019-04-28T03:50:24.832Z,60.51
2019-04-28T03:51:14.853Z,60.59
2019-04-28T03:52:05.364Z,60.89
2019-04-28T03:52:56.096Z,60.85
2019-04-28T03:53:46.307Z,60.86
2019-04-28T03:54:40.681Z,60.91
2019-04-28T03:55:34.522Z,60.87
2019-04-28T03:56:20.913Z,60.89
2019-04-28T03:57:11.647Z,60.82
2019-04-28T03:58:02.234Z,60.82
2019-04-28T03:58:53.078Z,60.84
2019-04-28T03:59:43.919Z,60.88
2019-04-28T04:00:34.514Z,60.96
2019-04-28T04:01:24.574Z,61.04
2019-04-28T04:02:15.187Z,61.11
2019-04-28T04:03:05.868Z,61.04
2019-04-28T04:03:56.661Z,61.07
2019-04-28T04:04:47.001Z,61.00
2019-04-28T04:05:40.383Z,61.07
2019-04-28T04:06:27.899Z,61.14
2019-04-28T04:07:21.684Z,61.08
2019-04-28T04:08:11.219Z,61.23
2019-04-28T04:09:01.100Z,61.33
2019-04-28T04:10:11.641Z,61.46
2019-04-28T04:11:10.811Z,61.47
2019-04-28T04:12:21.234Z,61.44
2019-04-28T04:13:13.931Z,61.42
2019-04-28T04:14:14.314Z,61.39
2019-04-28T04:15:21.458Z,61.45
2019-04-28T04:16:30.945Z,61.49
2019-04-28T04:17:34.738Z,61.44
2019-04-28T04:18:32.940Z,61.51
2019-04-28T04:19:25.621Z,61.46
2019-04-28T04:20:20.720Z,61.71
2019-04-28T04:21:11.065Z,61.64
2019-04-28T04:22:03.537Z,61.73
2019-04-28T04:22:53.635Z,61.69
2019-04-28T04:23:44.914Z,61.72
2019-04-28T04:24:36.073Z,61.66
2019-04-28T04:25:31.134Z,61.68
2019-04-28T04:26:21.261Z,61.70
2019-04-28T04:27:10.715Z,61.69
2019-04-28T04:28:03.491Z,61.79
2019-04-28T04:28:51.500Z,61.64
2019-04-28T04:29:43.674Z,61.58
2019-04-28T04:30:33.689Z,61.59
2019-04-28T04:31:24.391Z,61.60
2019-04-28T04:32:23.190Z,61.59
2019-04-28T04:33:05.661Z,61.57
2019-04-28T04:33:56.095Z,61.58
2019-04-28T04:34:46.429Z,61.62
2019-04-28T04:35:37.172Z,61.73
2019-04-28T04:36:27.918Z,61.68
2019-04-28T04:37:20.771Z,61.72
2019-04-28T04:38:11.125Z,61.80
2019-04-28T04:39:02.291Z,61.75
2019-04-28T04:39:52.533Z,61.75
2019-04-28T04:40:43.784Z,61.74
2019-04-28T04:41:33.838Z,61.76
2019-04-28T04:42:24.740Z,61.75
2019-04-28T04:43:14.898Z,61.78
2019-04-28T04:44:11.163Z,61.81
2019-04-28T04:45:00.707Z,61.89
2019-04-28T04:45:52.807Z,61.85
2019-04-28T04:46:43.342Z,61.87
2019-04-28T04:47:34.315Z,62.10
2019-04-28T04:48:24.554Z,62.06
2019-04-28T04:49:14.828Z,62.09
2019-04-28T04:50:06.290Z,62.07
2019-04-28T04:50:57.066Z,62.23
2019-04-28T04:51:47.603Z,62.29
2019-04-28T04:52:40.299Z,62.17
2019-04-28T04:53:30.807Z,62.10
2019-04-28T04:54:20.479Z,62.15
2019-04-28T04:55:11.786Z,62.18
2019-04-28T04:56:02.242Z,62.03
2019-04-28T04:56:52.717Z,61.98
2019-04-28T04:57:43.011Z,61.93
2019-04-28T04:58:34.427Z,61.89
2019-04-28T04:59:26.696Z,61.92
2019-04-28T05:00:23.559Z,61.94
2019-04-28T05:01:40.707Z,61.94
2019-04-28T05:02:50.802Z,61.83
2019-04-28T05:03:33.127Z,61.75
2019-04-28T05:04:51.754Z,61.74
2019-04-28T05:05:42.518Z,61.85
2019-04-28T05:06:35.735Z,61.88
2019-04-28T05:07:26.327Z,62.07
2019-04-28T05:08:16.755Z,62.33
2019-04-28T05:09:10.080Z,62.52
2019-04-28T05:09:59.581Z,62.40
2019-04-28T05:10:50.321Z,62.54
2019-04-28T05:11:40.379Z,62.61
2019-04-28T05:12:31.474Z,62.65
2019-04-28T05:13:22.048Z,63.04
2019-04-28T05:14:12.591Z,63.15
2019-04-28T05:15:05.164Z,63.56
2019-04-28T05:15:56.222Z,63.78
2019-04-28T05:16:46.631Z,63.47
2019-04-28T05:17:37.545Z,63.46
2019-04-28T05:18:29.782Z,63.89
2019-04-28T05:19:20.919Z,63.56
2019-04-28T05:20:12.055Z,63.77
2019-04-28T05:21:02.839Z,63.96
2019-04-28T05:21:53.018Z,63.71
2019-04-28T05:23:03.251Z,63.70
2019-04-28T05:24:20.098Z,63.95
2019-04-28T05:25:17.676Z,63.95
2019-04-28T05:26:11.268Z,64.04
2019-04-28T05:26:59.645Z,63.67
2019-04-28T05:27:50.042Z,63.54
2019-04-28T05:28:50.592Z,63.64
2019-04-28T05:29:31.890Z,63.93
2019-04-28T05:30:22.268Z,64.27
2019-04-28T05:31:20.622Z,64.39
2019-04-28T05:32:05.632Z,64.29
2019-04-28T05:32:57.423Z,64.20
2019-04-28T05:33:46.568Z,64.42
2019-04-28T05:34:39.842Z,64.37
2019-04-28T05:35:29.414Z,64.53
2019-04-28T05:36:20.334Z,64.57
2019-04-28T05:37:10.754Z,64.55
2019-04-28T05:38:00.770Z,64.31
2019-04-28T05:38:51.276Z,64.19
2019-04-28T05:39:41.920Z,64.18
2019-04-28T05:40:33.330Z,63.96
2019-04-28T05:41:24.112Z,63.87
2019-04-28T05:42:14.412Z,63.69
2019-04-28T05:43:05.915Z,63.58
2019-04-28T05:43:59.614Z,63.59
2019-04-28T05:44:50.957Z,63.52
2019-04-28T05:45:41.513Z,63.42
2019-04-28T05:46:32.621Z,63.38
2019-04-28T05:47:22.616Z,63.38
2019-04-28T05:48:13.606Z,63.32
2019-04-28T05:49:15.789Z,63.15
2019-04-28T05:50:19.740Z,63.06
2019-04-28T05:51:11.201Z,62.95
2019-04-28T05:52:07.086Z,62.98
2019-04-28T05:53:02.592Z,62.91
2019-04-28T05:54:02.525Z,62.84
2019-04-28T05:54:57.274Z,62.64
2019-04-28T05:56:10.366Z,62.74
2019-04-28T05:57:23.284Z,62.74
2019-04-28T05:58:35.935Z,62.63
2019-04-28T05:59:45.617Z,62.32
2019-04-28T06:00:52.580Z,62.17
2019-04-28T06:01:57.242Z,62.33
2019-04-28T06:02:56.510Z,62.18
2019-04-28T06:03:40.637Z,61.82
2019-04-28T06:04:31.837Z,61.70
2019-04-28T06:05:23.381Z,61.71
2019-04-28T06:06:13.415Z,61.43
2019-04-28T06:07:10.060Z,61.62
2019-04-28T06:08:31.529Z,61.38
2019-04-28T06:09:34.895Z,61.56
2019-04-28T06:10:25.218Z,61.16
2019-04-28T06:11:35.340Z,60.62
2019-04-28T06:12:25.492Z,60.40
2019-04-28T06:13:16.170Z,60.36
2019-04-28T06:14:09.932Z,60.43
2019-04-28T06:15:00.137Z,60.58
2019-04-28T06:15:49.756Z,60.71
2019-04-28T06:16:40.603Z,60.81
2019-04-28T06:17:30.418Z,60.73
2019-04-28T06:18:20.996Z,60.83
2019-04-28T06:19:11.970Z,60.88
2019-04-28T06:20:03.719Z,60.69
2019-04-28T06:20:54.077Z,59.96
2019-04-28T06:21:44.890Z,59.99
2019-04-28T06:22:35.381Z,60.04
2019-04-28T06:23:28.687Z,59.94
2019-04-28T06:24:19.167Z,59.34
2019-04-28T06:25:10.663Z,59.50
2019-04-28T06:26:01.198Z,59.54
2019-04-28T06:26:51.652Z,59.54
2019-04-28T06:27:42.537Z,59.07
2019-04-28T06:28:32.743Z,59.07
2019-04-28T06:29:26.998Z,59.00
2019-04-28T06:30:18.357Z,58.98
2019-04-28T06:31:08.441Z,58.93
2019-04-28T06:31:58.563Z,58.89
2019-04-28T06:32:50.559Z,58.91
2019-04-28T06:33:44.410Z,58.47
2019-04-28T06:34:32.233Z,58.22
2019-04-28T06:35:25.987Z,58.25
2019-04-28T06:36:16.972Z,58.30
2019-04-28T06:37:08.449Z,58.39
2019-04-28T06:37:59.005Z,58.60
2019-04-28T06:38:50.634Z,58.72
2019-04-28T06:39:41.107Z,58.65
2019-04-28T06:40:31.679Z,58.54
2019-04-28T06:41:22.641Z,58.65
2019-04-28T06:42:12.947Z,58.52
2019-04-28T06:43:04.097Z,58.23
2019-04-28T06:43:55.060Z,58.07
2019-04-28T06:44:46.137Z,58.07
2019-04-28T06:45:38.591Z,58.08
2019-04-28T06:46:29.011Z,57.83
2019-04-28T06:47:19.601Z,57.73
2019-04-28T06:48:10.208Z,57.73
2019-04-28T06:49:00.903Z,57.55
2019-04-28T06:49:51.317Z,57.43
2019-04-28T06:50:41.815Z,57.47
2019-04-28T06:51:32.690Z,57.50
2019-04-28T06:52:23.820Z,57.42
2019-04-28T06:53:15.742Z,57.39
2019-04-28T06:54:06.533Z,56.38
2019-04-28T06:54:56.997Z,56.13
2019-04-28T06:55:47.909Z,56.40
2019-04-28T06:56:38.762Z,56.47
2019-04-28T06:57:29.461Z,56.36
2019-04-28T06:58:20.424Z,56.33
2019-04-28T06:59:11.477Z,56.52
2019-04-28T07:00:01.816Z,56.56
2019-04-28T07:00:52.511Z,56.66
2019-04-28T07:01:43.645Z,56.77
2019-04-28T07:02:33.689Z,56.49
2019-04-28T07:03:24.590Z,56.52
2019-04-28T07:04:15.799Z,56.57
2019-04-28T07:05:05.948Z,56.52
2019-04-28T07:05:56.026Z,56.43
2019-04-28T07:06:47.425Z,56.59
2019-04-28T07:07:38.051Z,56.36
2019-04-28T07:08:28.607Z,56.48
2019-04-28T07:09:18.980Z,56.63
2019-04-28T07:10:10.064Z,56.59
2019-04-28T07:11:00.085Z,56.53
2019-04-28T07:11:50.711Z,56.63
2019-04-28T07:12:41.090Z,56.69
2019-04-28T07:13:33.488Z,56.78
2019-04-28T07:14:24.251Z,56.68
2019-04-28T07:15:16.043Z,56.54
2019-04-28T07:16:06.488Z,56.53
2019-04-28T07:16:57.689Z,56.34
2019-04-28T07:17:47.950Z,56.16
2019-04-28T07:18:38.750Z,56.08
2019-04-28T07:19:29.006Z,56.29
2019-04-28T07:20:41.572Z,56.36
2019-04-28T07:21:38.512Z,56.48
2019-04-28T07:22:30.425Z,56.48
2019-04-28T07:23:22.752Z,56.36
2019-04-28T07:24:13.456Z,56.37
2019-04-28T07:25:03.924Z,55.71
2019-04-28T07:25:54.064Z,55.30
2019-04-28T07:26:44.926Z,55.56
2019-04-28T07:27:35.816Z,55.68
2019-04-28T07:28:26.851Z,55.89
2019-04-28T07:29:17.219Z,55.92
2019-04-28T07:30:07.351Z,55.53
2019-04-28T07:30:59.433Z,55.06
2019-04-28T07:31:50.145Z,54.72
2019-04-28T07:32:40.522Z,54.80
2019-04-28T07:33:36.231Z,54.88
2019-04-28T07:34:21.768Z,54.77
2019-04-28T07:35:12.566Z,54.52
2019-04-28T07:36:03.129Z,54.07
2019-04-28T07:36:53.693Z,54.16
2019-04-28T07:37:44.377Z,54.23
2019-04-28T07:38:34.325Z,54.06
2019-04-28T07:39:24.607Z,53.38
2019-04-28T07:40:15.242Z,53.72
2019-04-28T07:41:05.477Z,53.87
2019-04-28T07:41:55.649Z,54.06
2019-04-28T07:42:47.213Z,53.96
2019-04-28T07:43:37.852Z,54.00
2019-04-28T07:44:29.342Z,54.07
2019-04-28T07:45:20.506Z,54.10
2019-04-28T07:46:11.467Z,54.12
2019-04-28T07:47:02.178Z,54.09
2019-04-28T07:47:54.211Z,54.02
2019-04-28T07:48:45.499Z,54.14
2019-04-28T07:49:35.641Z,54.27
2019-04-28T07:50:26.444Z,54.44
2019-04-28T07:51:17.576Z,54.35
2019-04-28T07:52:19.210Z,54.33
2019-04-28T07:53:13.626Z,54.08
2019-04-28T07:54:08.487Z,53.64
2019-04-28T07:54:59.104Z,53.91
2019-04-28T07:55:49.660Z,54.02
2019-04-28T07:56:40.290Z,54.20
2019-04-28T07:57:31.438Z,54.25
2019-04-28T07:58:21.978Z,54.31
2019-04-28T07:59:12.410Z,53.70
2019-04-28T08:00:03.823Z,52.83
2019-04-28T08:00:55.301Z,52.87
2019-04-28T08:01:46.658Z,52.80
2019-04-28T08:02:36.762Z,52.01
2019-04-28T08:03:27.105Z,52.47
2019-04-28T08:04:18.068Z,52.40
2019-04-28T08:05:08.307Z,52.50
2019-04-28T08:05:58.886Z,52.56
2019-04-28T08:06:49.180Z,52.57
2019-04-28T08:07:40.152Z,52.61
2019-04-28T08:08:31.122Z,52.42
2019-04-28T08:09:23.123Z,52.41
2019-04-28T08:10:13.635Z,52.20
2019-04-28T08:11:07.568Z,51.53
2019-04-28T08:11:57.741Z,52.07
2019-04-28T08:12:49.240Z,51.81
2019-04-28T08:13:39.062Z,51.70
2019-04-28T08:14:30.027Z,51.86
2019-04-28T08:15:20.774Z,52.05
2019-04-28T08:16:12.504Z,51.91
2019-04-28T08:17:03.503Z,51.52
2019-04-28T08:17:53.945Z,51.83
2019-04-28T08:18:45.104Z,51.80
2019-04-28T08:19:35.378Z,51.90
2019-04-28T08:20:26.433Z,51.84
2019-04-28T08:21:17.185Z,51.88
2019-04-28T08:22:08.059Z,51.79
2019-04-28T08:22:58.842Z,51.82
2019-04-28T08:23:49.221Z,51.50
2019-04-28T08:24:39.711Z,51.52
2019-04-28T08:25:30.334Z,51.63
2019-04-28T08:26:21.949Z,51.56
2019-04-28T08:27:12.858Z,51.60
2019-04-28T08:28:03.222Z,51.58
2019-04-28T08:28:53.663Z,51.41
2019-04-28T08:29:44.758Z,51.20
2019-04-28T08:30:36.369Z,51.00
2019-04-28T08:31:32.999Z,51.06
2019-04-28T08:32:36.726Z,51.00
2019-04-28T08:33:36.880Z,50.62
2019-04-28T08:34:28.216Z,50.59
2019-04-28T08:35:18.609Z,50.68
2019-04-28T08:36:09.168Z,50.88
2019-04-28T08:36:59.469Z,50.79
2019-04-28T08:37:50.275Z,50.86
2019-04-28T08:38:41.490Z,50.45
2019-04-28T08:39:32.294Z,50.66
2019-04-28T08:40:23.565Z,50.70
2019-04-28T08:41:15.532Z,50.79
2019-04-28T08:42:06.008Z,51.12
2019-04-28T08:42:56.626Z,51.20
2019-04-28T08:43:47.116Z,51.16
2019-04-28T08:44:37.669Z,51.08
2019-04-28T08:45:29.713Z,50.47
2019-04-28T08:46:20.404Z,50.68
2019-04-28T08:47:10.859Z,50.64
2019-04-28T08:48:01.780Z,50.79
2019-04-28T08:48:52.406Z,50.63
2019-04-28T08:49:43.878Z,50.29
2019-04-28T08:50:35.005Z,49.52
2019-04-28T08:51:26.229Z,49.45
2019-04-28T08:52:18.327Z,48.89
2019-04-28T08:53:09.256Z,48.96
2019-04-28T08:53:59.989Z,49.47
2019-04-28T08:54:51.507Z,49.45
2019-04-28T08:55:42.331Z,49.78
2019-04-28T08:56:33.025Z,49.55
2019-04-28T08:57:23.682Z,49.10
2019-04-28T08:58:13.632Z,49.09
2019-04-28T08:59:05.039Z,49.14
2019-04-28T08:59:55.512Z,48.91
2019-04-28T09:00:45.606Z,49.03
2019-04-28T09:01:36.742Z,48.93
2019-04-28T09:02:27.651Z,48.60
2019-04-28T09:03:17.984Z,48.64
2019-04-28T09:04:15.157Z,48.80
2019-04-28T09:04:58.082Z,48.34
2019-04-28T09:05:49.310Z,48.60
2019-04-28T09:06:41.540Z,48.66
2019-04-28T09:07:32.078Z,48.46
2019-04-28T09:08:22.510Z,48.69
2019-04-28T09:09:16.998Z,48.07
2019-04-28T09:10:07.208Z,47.89
2019-04-28T09:10:58.425Z,47.63
2019-04-28T09:11:49.017Z,47.43
2019-04-28T09:12:40.695Z,47.26
2019-04-28T09:13:32.130Z,47.48
2019-04-28T09:14:23.265Z,47.64
2019-04-28T09:15:14.475Z,47.37
2019-04-28T09:16:05.547Z,46.96
2019-04-28T09:16:56.550Z,47.28
2019-04-28T09:17:47.082Z,47.14
2019-04-28T09:18:38.769Z,47.26
2019-04-28T09:19:29.418Z,47.21
2019-04-28T09:20:20.282Z,46.53
2019-04-28T09:21:10.747Z,46.51
2019-04-28T09:22:01.378Z,46.83
2019-04-28T09:22:52.439Z,46.95
2019-04-28T09:23:44.576Z,47.02
2019-04-28T09:24:34.662Z,47.08
2019-04-28T09:25:25.378Z,47.24
2019-04-28T09:26:16.272Z,47.56
2019-04-28T09:27:06.826Z,47.71
2019-04-28T09:27:58.124Z,47.35
2019-04-28T09:28:49.465Z,47.25
2019-04-28T09:29:40.325Z,47.10
2019-04-28T09:30:31.463Z,46.96
2019-04-28T09:31:22.367Z,47.19
2019-04-28T09:32:12.674Z,46.74
2019-04-28T09:33:03.801Z,46.55
2019-04-28T09:33:55.281Z,45.97
2019-04-28T09:34:45.267Z,46.02
2019-04-28T09:35:35.443Z,46.29
2019-04-28T09:36:26.419Z,46.68
2019-04-28T09:37:18.302Z,46.91
2019-04-28T09:38:08.524Z,46.91
2019-04-28T09:38:59.294Z,47.07
2019-04-28T09:39:53.095Z,46.98
2019-04-28T09:40:44.039Z,46.99
2019-04-28T09:41:34.404Z,47.13
2019-04-28T09:42:49.320Z,47.22
2019-04-28T09:44:05.087Z,47.45
2019-04-28T09:44:55.675Z,47.30
2019-04-28T09:45:52.650Z,47.51
2019-04-28T09:46:43.407Z,47.90
2019-04-28T09:47:33.536Z,48.61
2019-04-28T09:48:24.330Z,47.93
2019-04-28T09:49:15.050Z,46.65
2019-04-28T09:50:07.028Z,47.06
2019-04-28T09:50:57.142Z,46.70
2019-04-28T09:51:48.612Z,46.00
2019-04-28T09:52:39.133Z,46.35
2019-04-28T09:53:30.045Z,46.38
2019-04-28T09:54:20.841Z,45.05
2019-04-28T09:55:11.509Z,44.19
2019-04-28T09:56:02.211Z,44.36
2019-04-28T09:56:56.806Z,44.99
2019-04-28T09:57:42.818Z,45.51
2019-04-28T09:58:32.967Z,45.91
2019-04-28T09:59:23.783Z,45.90
2019-04-28T10:00:14.431Z,45.72
2019-04-28T10:01:06.655Z,45.84
2019-04-28T10:01:57.460Z,46.04
2019-04-28T10:02:48.082Z,45.72
2019-04-28T10:03:38.630Z,45.69
2019-04-28T10:04:41.041Z,45.39
2019-04-28T10:05:20.016Z,45.71
2019-04-28T10:06:11.219Z,44.30
2019-04-28T10:07:01.925Z,44.43
2019-04-28T10:07:52.904Z,44.44
2019-04-28T10:08:43.076Z,44.02
2019-04-28T10:09:34.472Z,44.06
2019-04-28T10:10:24.684Z,43.26
2019-04-28T10:11:15.605Z,43.45
2019-04-28T10:12:06.626Z,43.24
2019-04-28T10:12:58.947Z,42.99
2019-04-28T10:13:49.447Z,42.72
2019-04-28T10:14:40.149Z,42.93
2019-04-28T10:15:31.182Z,43.10
2019-04-28T10:16:22.108Z,43.61
2019-04-28T10:17:13.190Z,44.06
2019-04-28T10:18:04.106Z,44.49
2019-04-28T10:18:54.183Z,43.56
2019-04-28T10:19:44.868Z,43.09
2019-04-28T10:20:36.570Z,42.31
2019-04-28T10:21:27.022Z,42.42
2019-04-28T10:22:17.918Z,42.00
2019-04-28T10:23:08.453Z,42.61
2019-04-28T10:24:00.809Z,42.37
2019-04-28T10:24:51.125Z,42.10
2019-04-28T10:25:42.549Z,41.82
2019-04-28T10:26:33.378Z,41.47
2019-04-28T10:27:23.930Z,41.42
2019-04-28T10:28:14.246Z,41.30
2019-04-28T10:29:05.501Z,41.79
2019-04-28T10:29:57.890Z,40.68
2019-04-28T10:30:48.912Z,40.74
2019-04-28T10:31:39.366Z,40.82
2019-04-28T10:32:29.820Z,39.22
2019-04-28T10:33:20.268Z,39.71
2019-04-28T10:34:11.421Z,40.29
2019-04-28T10:35:02.681Z,40.28
2019-04-28T10:35:53.691Z,40.00
2019-04-28T10:36:43.927Z,40.23
2019-04-28T10:37:34.679Z,40.37
2019-04-28T10:38:25.822Z,40.43
2019-04-28T10:39:31.625Z,40.33
2019-04-28T10:40:33.195Z,40.80
2019-04-28T10:41:33.533Z,41.19
2019-04-28T10:42:24.304Z,41.12
2019-04-28T10:43:15.724Z,40.94
2019-04-28T10:44:08.608Z,41.47
2019-04-28T10:44:57.016Z,41.44
2019-04-28T10:45:48.499Z,40.89
2019-04-28T10:46:39.613Z,41.32
2019-04-28T10:47:30.546Z,41.91
2019-04-28T10:48:21.178Z,41.66
2019-04-28T10:49:12.634Z,41.77
2019-04-28T10:50:04.541Z,41.53
2019-04-28T10:50:55.562Z,41.36
2019-04-28T10:51:58.785Z,40.89
2019-04-28T10:52:37.576Z,41.21
2019-04-28T10:53:28.098Z,41.33
2019-04-28T10:54:20.111Z,41.45
2019-04-28T10:55:10.388Z,41.27
2019-04-28T10:56:00.700Z,41.31
2019-04-28T10:56:51.175Z,41.51
2019-04-28T10:57:41.518Z,41.61
2019-04-28T10:58:32.735Z,41.33
2019-04-28T10:59:23.263Z,41.44
2019-04-28T11:00:14.341Z,41.28
2019-04-28T11:01:04.904Z,41.60
2019-04-28T11:01:55.803Z,41.77
2019-04-28T11:02:46.878Z,41.39
2019-04-28T11:03:38.219Z,40.80
2019-04-28T11:04:46.888Z,41.11
2019-04-28T11:05:42.246Z,41.20
2019-04-28T11:06:33.468Z,40.52
2019-04-28T11:07:25.244Z,41.07
2019-04-28T11:08:33.409Z,39.36
2019-04-28T11:09:30.834Z,39.92
2019-04-28T11:10:20.334Z,40.16
2019-04-28T11:11:21.868Z,40.91
2019-04-28T11:12:15.903Z,39.16
2019-04-28T11:13:06.621Z,39.38
2019-04-28T11:13:56.763Z,39.59